Sandy Creek, TX

4:40 PM CDT on August 30, 2014 (GMT -0500)
east cameron | Change Station
CLOSE
Current Station
Personal Weather Station
Location: Cameron, TX
Elevation: 404 ft
Nearby Weather Stations

Elev 404 ft 30.86 °N, 96.96 °W | Updated 5 minutes ago

Clear
Clear
92.3 °F
Feels Like 98 °F
N
3.7
Wind Variable Wind from North

Today
High -- | Low -- °F
--% Chance of Precip.
Yesterday
High -- | Low -- °F
Precip. -- in
7:02 AM 7:52 PM
Waxing Crescent, 25% visible
Pressure 29.88 in
Visibility 10.0 miles
Clouds Scattered Clouds 4700 ft
Heat Index 98 °F
Dew Point 70 °F
Humidity 48%
Rainfall 0.00 in
Snow Depth Not available.
UV 4 out of 12
Pollen 7.50 out of 12
Air Quality Not available.
Flu Activity Not available.
METAR KT35 302135Z AUTO 12008KT 080V150 10SM SCT047 34/21 A2988 RMK AO2 T03400208

More Conditions Fewer Conditions

Pressure 29.88 in
Visibility 10.0 miles
Clouds Scattered Clouds 4700 ft
Heat Index 98 °F
Dew Point 70 °F
Humidity 48%
Rainfall 0.00 in
Snow Depth Not available.
UV 4 out of 12
Pollen 7.50 out of 12
Air Quality Not available.
Flu Activity Not available.
METAR KT35 302135Z AUTO 12008KT 080V150 10SM SCT047 34/21 A2988 RMK AO2 T03400208

More Conditions Fewer Conditions

Nowcast | as of 2:25 PM CDT on August 30, 2014

Isolated showers and thunderstorms between Mineral Wells...Brownwood and Gatesville were moving southeast at 10 to 15 mph. Additional development of isolated showers and thunderstorms is expected this afternoon. Some of the storms will produce strong gusty winds...as well as cloud to ground lightning and brief heavy rain. Otherwise...expect partly to mostly sunny skies with temperatures rising into the upper 80s to mid 90s by 4 PM.

×

10-Day Weather Forecast

Almanac

Astronomy

Aug. 30, 2014 Rise Set
Actual Time 7:02 AM CDT 7:52 PM CDT
Civil Twilight 6:37 AM CDT 8:17 PM CDT
Nautical Twilight 6:08 AM CDT 8:46 PM CDT
Astronomical Twilight 5:38 AM CDT 9:15 PM CDT
Moon 11:29 AM CDT 10:50 PM CDT
Length of Visible Light 13h 39m
Length of Day
12h 50m
Tomorrow will be 1m 46s shorter.
Waxing Crescent, 25% of the Moon is Illuminated
Today
Waxing Crescent
Sep 2
First Quarter
Sep 8
Full
Sep 15
Last Quarter
Sep 24
New

Today's Extremes

State Highs State Lows

Community

WunderPhotos

Upload Photos

1,748,647 photos uploaded!

WunderBlogs® & News

Nearby

Snow Depth

Station Depth Elevation
No new snow has been reported.

Earthquake Activity

City Distance Mag. Time & Date
No recent earthquake activity has been reported nearby.
Minimum magnitude displayed is 2.5.

Coastal Water Temperatures

Place Temperature
No Stations Reporting

Nearby Weather Stations